createdAt,value
2019-03-23T00:00:42.306Z,7.80
2019-03-23T00:01:42.273Z,7.80
2019-03-23T00:02:42.218Z,9.00
2019-03-23T00:03:42.213Z,8.20
2019-03-23T00:04:42.194Z,8.50
2019-03-23T00:05:42.185Z,7.40
2019-03-23T00:06:42.173Z,9.30
2019-03-23T00:07:42.207Z,8.40
2019-03-23T00:08:42.151Z,8.80
2019-03-23T00:09:42.146Z,10.30
2019-03-23T00:10:42.128Z,9.20
2019-03-23T00:11:42.169Z,7.70
2019-03-23T00:12:42.109Z,8.90
2019-03-23T00:13:42.140Z,8.30
2019-03-23T00:14:42.090Z,7.70
2019-03-23T00:15:42.072Z,8.60
2019-03-23T00:16:42.066Z,8.00
2019-03-23T00:17:42.057Z,11.30
2019-03-23T00:18:42.050Z,8.40
2019-03-23T00:19:42.072Z,6.60
2019-03-23T00:20:42.022Z,9.10
2019-03-23T00:21:42.007Z,9.30
2019-03-23T00:22:42.036Z,8.40
2019-03-23T00:23:41.989Z,9.80
2019-03-23T00:24:41.973Z,7.60
2019-03-23T00:25:41.961Z,7.70
2019-03-23T00:26:41.954Z,10.10
2019-03-23T00:27:41.977Z,8.90
2019-03-23T00:28:41.927Z,9.00
2019-03-23T00:29:41.918Z,12.50
2019-03-23T00:30:41.904Z,7.80
2019-03-23T00:31:41.951Z,8.50
2019-03-23T00:32:41.886Z,8.80
2019-03-23T00:33:41.874Z,9.10
2019-03-23T00:34:41.860Z,8.20
2019-03-23T00:35:41.850Z,8.20
2019-03-23T00:36:42.048Z,6.70
2019-03-23T00:37:41.869Z,7.40
2019-03-23T00:38:41.822Z,8.70
2019-03-23T00:39:41.803Z,8.10
2019-03-23T00:40:41.793Z,8.10
2019-03-23T00:41:41.783Z,9.20
2019-03-23T00:42:41.815Z,8.50
2019-03-23T00:43:41.768Z,7.90
2019-03-23T00:44:41.759Z,7.00
2019-03-23T00:45:41.744Z,9.10
2019-03-23T00:46:41.780Z,7.50
2019-03-23T00:47:41.725Z,7.50
2019-03-23T00:48:41.706Z,7.70
2019-03-23T00:49:41.741Z,7.20
2019-03-23T00:50:41.683Z,8.40
2019-03-23T00:51:41.671Z,7.30
2019-03-23T00:52:41.663Z,9.80
2019-03-23T00:53:41.654Z,9.10
2019-03-23T00:54:41.636Z,8.90
2019-03-23T00:55:41.914Z,9.00
2019-03-23T00:56:41.617Z,7.90
2019-03-23T00:57:41.606Z,9.00
2019-03-23T00:58:41.594Z,10.40
2019-03-23T00:59:41.634Z,8.40
2019-03-23T01:00:41.576Z,7.40
2019-03-23T01:01:41.571Z,8.00
2019-03-23T01:02:42.021Z,12.10
2019-03-23T01:03:41.585Z,7.80
2019-03-23T01:04:41.582Z,7.00
2019-03-23T01:05:41.516Z,9.50
2019-03-23T01:06:51.567Z,6.70
2019-03-23T01:07:42.498Z,8.30
2019-03-23T01:08:41.484Z,8.60
2019-03-23T01:09:41.521Z,9.00
2019-03-23T01:10:41.459Z,8.80
2019-03-23T01:11:41.450Z,7.60
2019-03-23T01:12:41.438Z,8.10
2019-03-23T01:13:41.431Z,10.50
2019-03-23T01:14:41.458Z,8.90
2019-03-23T01:15:41.407Z,7.80
2019-03-23T01:16:41.451Z,7.10
2019-03-23T01:17:41.383Z,8.10
2019-03-23T01:18:41.371Z,8.70
2019-03-23T01:19:41.372Z,10.60
2019-03-23T01:20:49.369Z,8.50
2019-03-23T01:21:42.382Z,8.00
2019-03-23T01:22:41.331Z,8.90
2019-03-23T01:23:41.318Z,8.70
2019-03-23T01:24:41.350Z,7.20
2019-03-23T01:25:41.301Z,11.90
2019-03-23T01:26:41.284Z,10.10
2019-03-23T01:27:41.274Z,7.10
2019-03-23T01:28:41.264Z,7.90
2019-03-23T01:29:41.301Z,9.30
2019-03-23T01:30:41.248Z,7.30
2019-03-23T01:31:41.229Z,7.80
2019-03-23T01:32:41.218Z,8.60
2019-03-23T01:33:41.207Z,8.70
2019-03-23T01:34:41.211Z,8.70
2019-03-23T01:35:41.232Z,10.00
2019-03-23T01:36:41.178Z,8.20
2019-03-23T01:37:41.163Z,10.60
2019-03-23T01:38:41.150Z,10.80
2019-03-23T01:39:41.139Z,8.10
2019-03-23T01:40:41.175Z,8.10
2019-03-23T01:41:41.117Z,10.00
2019-03-23T01:42:41.120Z,9.50
2019-03-23T01:43:41.096Z,9.90
2019-03-23T01:44:41.135Z,7.50
2019-03-23T01:45:41.071Z,8.80
2019-03-23T01:46:41.062Z,8.20
2019-03-23T01:47:41.099Z,9.60
2019-03-23T01:48:41.065Z,9.60
2019-03-23T01:49:41.028Z,8.00
2019-03-23T01:50:41.020Z,8.70
2019-03-23T01:51:41.006Z,8.60
2019-03-23T01:52:40.998Z,9.80
2019-03-23T01:53:41.031Z,10.30
2019-03-23T01:54:40.977Z,12.00
2019-03-23T01:55:40.963Z,11.80
2019-03-23T01:56:40.952Z,8.30
2019-03-23T01:57:40.982Z,12.50
2019-03-23T01:58:40.933Z,11.10
2019-03-23T01:59:40.922Z,14.40
2019-03-23T02:00:40.955Z,8.70
2019-03-23T02:01:40.898Z,10.40
2019-03-23T02:02:40.889Z,11.80
2019-03-23T02:03:40.919Z,10.10
2019-03-23T02:04:40.866Z,9.10
2019-03-23T02:05:40.856Z,9.10
2019-03-23T02:06:40.860Z,9.20
2019-03-23T02:07:40.884Z,9.70
2019-03-23T02:08:40.820Z,9.50
2019-03-23T02:09:40.858Z,11.30
2019-03-23T02:10:41.922Z,10.00
2019-03-23T02:11:40.794Z,12.10
2019-03-23T02:12:40.787Z,11.00
2019-03-23T02:13:40.767Z,12.10
2019-03-23T02:14:40.801Z,12.90
2019-03-23T02:15:40.749Z,11.40
2019-03-23T02:16:40.783Z,10.90
2019-03-23T02:17:40.737Z,10.50
2019-03-23T02:18:40.733Z,10.50
2019-03-23T02:19:40.706Z,11.50
2019-03-23T02:20:40.691Z,12.60
2019-03-23T02:21:40.686Z,10.70
2019-03-23T02:22:40.726Z,14.60
2019-03-23T02:23:40.712Z,10.60
2019-03-23T02:24:40.647Z,10.90
2019-03-23T02:25:40.635Z,10.10
2019-03-23T02:26:40.641Z,11.60
2019-03-23T02:27:40.616Z,10.20
2019-03-23T02:28:40.605Z,12.30
2019-03-23T02:29:40.641Z,13.70
2019-03-23T02:30:40.585Z,12.90
2019-03-23T02:31:40.571Z,11.20
2019-03-23T02:32:40.632Z,12.50
2019-03-23T02:33:40.591Z,10.80
2019-03-23T02:34:40.589Z,10.10
2019-03-23T02:35:40.540Z,13.30
2019-03-23T02:36:40.537Z,14.40
2019-03-23T02:37:40.512Z,12.20
2019-03-23T02:38:40.511Z,13.90
2019-03-23T02:39:40.486Z,13.70
2019-03-23T02:40:40.521Z,11.20
2019-03-23T02:41:40.467Z,11.80
2019-03-23T02:42:40.454Z,14.00
2019-03-23T02:43:40.444Z,11.20
2019-03-23T02:44:40.430Z,12.40
2019-03-23T02:45:40.459Z,12.80
2019-03-23T02:46:40.414Z,13.20
2019-03-23T02:47:40.504Z,12.00
2019-03-23T02:48:40.397Z,10.50
2019-03-23T02:49:40.423Z,14.00
2019-03-23T02:50:40.368Z,15.10
2019-03-23T02:51:40.358Z,14.20
2019-03-23T02:52:40.345Z,17.10
2019-03-23T02:53:40.340Z,14.90
2019-03-23T02:54:40.322Z,12.30
2019-03-23T02:55:40.357Z,14.20
2019-03-23T02:56:40.300Z,13.40
2019-03-23T02:57:40.350Z,17.30
2019-03-23T02:58:40.322Z,13.40
2019-03-23T02:59:40.272Z,13.10
2019-03-23T03:00:40.255Z,14.20
2019-03-23T03:01:40.246Z,14.10
2019-03-23T03:02:40.239Z,14.30
2019-03-23T03:03:40.238Z,14.60
2019-03-23T03:04:40.260Z,15.00
2019-03-23T03:05:40.211Z,16.50
2019-03-23T03:06:40.194Z,12.80
2019-03-23T03:07:42.536Z,13.20
2019-03-23T03:08:40.175Z,16.20
2019-03-23T03:09:40.159Z,11.70
2019-03-23T03:10:40.187Z,12.50
2019-03-23T03:11:40.145Z,12.70
2019-03-23T03:12:40.126Z,15.40
2019-03-23T03:13:40.115Z,14.60
2019-03-23T03:14:40.107Z,12.90
2019-03-23T03:15:40.131Z,16.70
2019-03-23T03:16:40.099Z,15.20
2019-03-23T03:17:40.104Z,12.30
2019-03-23T03:18:40.060Z,11.40
2019-03-23T03:19:40.085Z,14.70
2019-03-23T03:20:40.049Z,12.30
2019-03-23T03:21:40.063Z,11.90
2019-03-23T03:22:40.027Z,12.60
2019-03-23T03:23:40.020Z,14.70
2019-03-23T03:24:39.997Z,10.90
2019-03-23T03:25:39.983Z,11.80
2019-03-23T03:26:40.006Z,11.70
2019-03-23T03:27:39.993Z,15.30
2019-03-23T03:28:39.989Z,13.00
2019-03-23T03:29:39.948Z,11.30
2019-03-23T03:30:39.939Z,12.90
2019-03-23T03:31:39.977Z,15.10
2019-03-23T03:32:39.915Z,13.00
2019-03-23T03:33:39.913Z,14.40
2019-03-23T03:34:39.892Z,11.20
2019-03-23T03:35:39.930Z,13.50
2019-03-23T03:36:39.908Z,14.20
2019-03-23T03:37:39.857Z,10.70
2019-03-23T03:38:39.848Z,15.00
2019-03-23T03:39:39.837Z,13.70
2019-03-23T03:40:39.830Z,14.40
2019-03-23T03:41:39.811Z,11.70
2019-03-23T03:42:39.839Z,12.70
2019-03-23T03:43:39.794Z,13.90
2019-03-23T03:44:39.786Z,10.70
2019-03-23T03:45:39.802Z,12.70
2019-03-23T03:46:39.757Z,11.70
2019-03-23T03:47:41.396Z,11.30
2019-03-23T03:48:39.777Z,13.60
2019-03-23T03:49:39.726Z,13.70
2019-03-23T03:50:39.723Z,14.60
2019-03-23T03:51:39.704Z,16.70
2019-03-23T03:52:39.708Z,14.30
2019-03-23T03:53:39.699Z,17.60
2019-03-23T03:54:39.707Z,17.70
2019-03-23T03:55:39.659Z,19.20
2019-03-23T03:56:39.659Z,13.70
2019-03-23T03:57:39.640Z,17.00
2019-03-23T03:58:39.673Z,19.60
2019-03-23T03:59:39.620Z,19.60
2019-03-23T04:00:39.608Z,15.70
2019-03-23T04:01:39.597Z,17.10
2019-03-23T04:02:39.586Z,15.80
2019-03-23T04:03:39.609Z,18.80
2019-03-23T04:04:39.597Z,17.70
2019-03-23T04:05:39.562Z,20.70
2019-03-23T04:06:39.577Z,22.40
2019-03-23T04:07:39.530Z,19.30
2019-03-23T04:08:39.556Z,19.50
2019-03-23T04:09:40.478Z,23.20
2019-03-23T04:10:39.512Z,18.60
2019-03-23T04:11:39.513Z,18.90
2019-03-23T04:12:39.522Z,23.20
2019-03-23T04:13:39.476Z,25.40
2019-03-23T04:14:39.457Z,21.00
2019-03-23T04:15:39.444Z,20.90
2019-03-23T04:16:39.469Z,19.60
2019-03-23T04:17:39.428Z,22.10
2019-03-23T04:18:39.424Z,20.70
2019-03-23T04:19:39.410Z,19.10
2019-03-23T04:20:39.394Z,19.90
2019-03-23T04:21:39.418Z,17.90
2019-03-23T04:22:39.378Z,25.90
2019-03-23T04:23:39.361Z,21.40
2019-03-23T04:24:39.355Z,24.70
2019-03-23T04:25:39.339Z,26.60
2019-03-23T04:26:39.591Z,25.50
2019-03-23T04:27:39.371Z,38.90
2019-03-23T04:28:39.336Z,28.00
2019-03-23T04:29:39.302Z,30.80
2019-03-23T04:30:39.283Z,29.50
2019-03-23T04:31:39.308Z,40.60
2019-03-23T04:32:39.265Z,44.80
2019-03-23T04:33:39.284Z,60.90
2019-03-23T04:34:39.243Z,58.50
2019-03-23T04:35:39.246Z,49.80
2019-03-23T04:36:39.221Z,58.70
2019-03-23T04:37:39.273Z,76.00
2019-03-23T04:38:39.212Z,82.40
2019-03-23T04:39:39.186Z,88.70
2019-03-23T04:40:39.182Z,98.40
2019-03-23T04:41:39.164Z,103.50
2019-03-23T04:42:39.152Z,121.60
2019-03-23T04:43:39.182Z,120.00
2019-03-23T04:44:39.136Z,125.80
2019-03-23T04:45:39.126Z,129.10
2019-03-23T04:46:39.125Z,136.20
2019-03-23T04:47:39.105Z,164.50
2019-03-23T04:48:39.133Z,164.90
2019-03-23T04:49:39.077Z,186.20
2019-03-23T04:50:39.069Z,195.30
2019-03-23T04:51:39.055Z,190.00
2019-03-23T04:52:39.055Z,198.80
2019-03-23T04:53:39.036Z,202.10
2019-03-23T04:54:39.088Z,204.30
2019-03-23T04:55:39.012Z,192.10
2019-03-23T04:56:39.003Z,192.60
2019-03-23T04:57:38.990Z,199.10
2019-03-23T04:58:38.992Z,184.70
2019-03-23T04:59:38.997Z,194.10
2019-03-23T05:00:39.002Z,188.90
2019-03-23T05:01:38.946Z,178.50
2019-03-23T05:02:38.941Z,178.20
2019-03-23T05:03:38.927Z,195.70
2019-03-23T05:04:38.927Z,179.10
2019-03-23T05:05:38.903Z,177.30
2019-03-23T05:06:38.932Z,184.20
2019-03-23T05:07:38.925Z,193.60
2019-03-23T05:08:38.874Z,170.30
2019-03-23T05:09:38.895Z,176.40
2019-03-23T05:10:38.875Z,181.10
2019-03-23T05:11:38.840Z,194.80
2019-03-23T05:12:38.828Z,197.40
2019-03-23T05:13:38.827Z,185.50
2019-03-23T05:14:38.842Z,192.00
2019-03-23T05:15:38.798Z,180.80
2019-03-23T05:16:38.790Z,196.20
2019-03-23T05:17:38.773Z,178.40
2019-03-23T05:18:38.766Z,198.50
2019-03-23T05:19:38.758Z,195.40
2019-03-23T05:20:38.774Z,207.70
2019-03-23T05:21:38.735Z,200.00
2019-03-23T05:22:38.719Z,195.80
2019-03-23T05:23:38.741Z,200.10
2019-03-23T05:24:38.731Z,202.00
2019-03-23T05:25:38.691Z,213.60
2019-03-23T05:26:38.688Z,208.50
2019-03-23T05:27:38.701Z,208.50
2019-03-23T05:28:38.665Z,209.50
2019-03-23T05:29:38.646Z,212.00
2019-03-23T05:30:38.639Z,224.10
2019-03-23T05:31:38.628Z,215.60
2019-03-23T05:32:38.615Z,211.70
2019-03-23T05:33:38.643Z,201.30
2019-03-23T05:34:38.588Z,208.30
2019-03-23T05:35:38.584Z,195.80
2019-03-23T05:36:38.568Z,206.00
2019-03-23T05:37:38.569Z,193.40
2019-03-23T05:38:44.232Z,220.90
2019-03-23T05:39:39.569Z,213.10
2019-03-23T05:40:38.522Z,211.60
2019-03-23T05:41:38.521Z,208.10
2019-03-23T05:42:38.520Z,219.40
2019-03-23T05:43:38.502Z,228.50
2019-03-23T05:44:38.520Z,217.70
2019-03-23T05:45:38.508Z,212.00
2019-03-23T05:46:38.462Z,226.00
2019-03-23T05:47:38.453Z,226.10
2019-03-23T05:48:38.450Z,212.40
2019-03-23T05:49:38.434Z,223.80
2019-03-23T05:50:38.452Z,224.80
2019-03-23T05:51:38.414Z,211.50
2019-03-23T05:52:38.409Z,230.50
2019-03-23T05:53:38.382Z,232.80
2019-03-23T05:54:38.375Z,223.20
2019-03-23T05:55:38.395Z,216.10
2019-03-23T05:56:38.355Z,216.40
2019-03-23T05:57:38.348Z,233.10
2019-03-23T05:58:38.364Z,239.20
2019-03-23T05:59:38.319Z,235.00
2019-03-23T06:00:38.308Z,239.20
2019-03-23T06:01:38.320Z,232.10
2019-03-23T06:02:38.346Z,239.50
2019-03-23T06:03:38.331Z,215.40
2019-03-23T06:04:38.270Z,215.20
2019-03-23T06:05:38.271Z,205.50
2019-03-23T06:06:38.263Z,203.10
2019-03-23T06:07:38.231Z,205.60
2019-03-23T06:08:38.279Z,201.90
2019-03-23T06:09:38.267Z,209.60
2019-03-23T06:10:38.230Z,206.80
2019-03-23T06:11:38.198Z,204.10
2019-03-23T06:12:38.190Z,203.00
2019-03-23T06:13:38.182Z,204.20
2019-03-23T06:14:38.227Z,201.70
2019-03-23T06:15:38.167Z,200.50
2019-03-23T06:16:38.275Z,206.20
2019-03-23T06:17:38.140Z,196.70
2019-03-23T06:18:38.128Z,196.10
2019-03-23T06:19:38.120Z,185.90
2019-03-23T06:20:38.132Z,197.60
2019-03-23T06:21:38.093Z,196.90
2019-03-23T06:22:38.072Z,201.30
2019-03-23T06:23:38.117Z,190.90
2019-03-23T06:24:38.072Z,193.00
2019-03-23T06:25:38.118Z,190.30
2019-03-23T06:26:38.039Z,195.50
2019-03-23T06:27:38.020Z,183.50
2019-03-23T06:28:38.024Z,190.20
2019-03-23T06:29:37.998Z,187.10
2019-03-23T06:30:38.033Z,179.50
2019-03-23T06:31:37.987Z,176.60
2019-03-23T06:32:38.045Z,176.50
2019-03-23T06:33:37.968Z,173.10
2019-03-23T06:34:37.990Z,167.70
2019-03-23T06:35:37.931Z,171.60
2019-03-23T06:36:37.924Z,166.80
2019-03-23T06:37:37.960Z,168.10
2019-03-23T06:38:37.916Z,163.70
2019-03-23T06:39:37.930Z,156.70
2019-03-23T06:40:37.877Z,145.80
2019-03-23T06:41:37.885Z,150.20
2019-03-23T06:42:37.928Z,156.30
2019-03-23T06:43:37.849Z,149.20
2019-03-23T06:44:37.851Z,142.50
2019-03-23T06:45:37.836Z,140.00
2019-03-23T06:46:37.815Z,132.70
2019-03-23T06:47:37.818Z,141.20
2019-03-23T06:48:37.844Z,138.00
2019-03-23T06:49:37.800Z,139.20
2019-03-23T06:50:37.774Z,146.20
2019-03-23T06:51:37.783Z,131.90
2019-03-23T06:52:37.768Z,147.10
2019-03-23T06:53:37.735Z,140.20
2019-03-23T06:54:37.791Z,122.90
2019-03-23T06:55:37.711Z,117.80
2019-03-23T06:56:37.776Z,122.90
2019-03-23T06:57:37.736Z,122.90
2019-03-23T06:58:38.648Z,112.40
2019-03-23T06:59:37.746Z,119.00
2019-03-23T07:00:37.691Z,118.20
2019-03-23T07:01:37.659Z,115.60
2019-03-23T07:02:37.675Z,118.20
2019-03-23T07:03:37.651Z,115.70
2019-03-23T07:04:37.614Z,116.80
2019-03-23T07:05:37.644Z,123.40
2019-03-23T07:06:37.600Z,117.60
2019-03-23T07:07:37.611Z,117.30
2019-03-23T07:08:37.639Z,114.80
2019-03-23T07:09:37.569Z,119.20
2019-03-23T07:10:37.616Z,125.50
2019-03-23T07:11:37.594Z,119.00
2019-03-23T07:12:37.527Z,123.80
2019-03-23T07:13:37.523Z,124.20
2019-03-23T07:14:37.503Z,110.50
2019-03-23T07:15:37.566Z,115.80
2019-03-23T07:16:37.483Z,115.70
2019-03-23T07:17:37.496Z,121.90
2019-03-23T07:18:37.470Z,120.30
2019-03-23T07:19:37.485Z,115.50
2019-03-23T07:20:37.452Z,113.50
2019-03-23T07:21:37.438Z,113.40
2019-03-23T07:22:37.430Z,116.90
2019-03-23T07:23:37.435Z,114.20
2019-03-23T07:24:37.439Z,111.50
2019-03-23T07:25:37.422Z,116.70
2019-03-23T07:26:37.381Z,114.90
2019-03-23T07:27:37.370Z,119.50
2019-03-23T07:28:37.423Z,121.70
2019-03-23T07:29:37.374Z,117.00
2019-03-23T07:30:37.341Z,124.90
2019-03-23T07:31:37.336Z,120.70
2019-03-23T07:32:37.356Z,114.70
2019-03-23T07:33:37.296Z,122.10
2019-03-23T07:34:37.289Z,121.10
2019-03-23T07:35:37.289Z,116.00
2019-03-23T07:36:37.292Z,119.50
2019-03-23T07:37:37.274Z,135.10
2019-03-23T07:38:37.275Z,126.90
2019-03-23T07:39:37.252Z,129.80
2019-03-23T07:40:37.279Z,126.20
2019-03-23T07:41:37.221Z,120.50
2019-03-23T07:42:37.222Z,117.20
2019-03-23T07:43:37.205Z,119.30
2019-03-23T07:44:37.239Z,122.60
2019-03-23T07:45:37.172Z,129.30
2019-03-23T07:46:37.221Z,125.40
2019-03-23T07:47:37.157Z,118.70
2019-03-23T07:48:37.173Z,115.10
2019-03-23T07:49:37.122Z,129.30
2019-03-23T07:50:37.190Z,130.90
2019-03-23T07:51:37.105Z,132.10
2019-03-23T07:52:37.124Z,140.50
2019-03-23T07:53:37.140Z,134.10
2019-03-23T07:54:37.078Z,127.70
2019-03-23T07:55:37.070Z,138.00
2019-03-23T07:56:37.053Z,137.50
2019-03-23T07:57:37.045Z,143.60
2019-03-23T07:58:37.105Z,147.90
2019-03-23T07:59:37.045Z,147.30
2019-03-23T08:00:37.074Z,153.40
2019-03-23T08:01:37.007Z,151.70
2019-03-23T08:02:37.016Z,148.70
2019-03-23T08:03:36.977Z,152.10
2019-03-23T08:04:36.963Z,152.40
2019-03-23T08:05:36.954Z,155.60
2019-03-23T08:06:36.983Z,159.90
2019-03-23T08:07:36.946Z,160.00
2019-03-23T08:08:36.914Z,158.70
2019-03-23T08:09:37.897Z,158.60
2019-03-23T08:10:36.892Z,163.80
2019-03-23T08:11:36.949Z,157.90
2019-03-23T08:12:36.979Z,153.00
2019-03-23T08:13:36.883Z,157.40
2019-03-23T08:14:36.858Z,151.80
2019-03-23T08:15:36.844Z,158.70
2019-03-23T08:16:36.853Z,157.30
2019-03-23T08:17:36.831Z,158.30
2019-03-23T08:18:36.852Z,156.40
2019-03-23T08:19:36.846Z,157.20
2019-03-23T08:20:36.821Z,154.20
2019-03-23T08:21:36.785Z,148.20
2019-03-23T08:22:36.771Z,143.30
2019-03-23T08:23:36.774Z,142.20
2019-03-23T08:24:36.816Z,144.00
2019-03-23T08:25:36.772Z,145.30
2019-03-23T08:26:36.752Z,139.10
2019-03-23T08:27:36.722Z,143.50
2019-03-23T08:28:36.712Z,134.40
2019-03-23T08:29:36.684Z,146.80
2019-03-23T08:30:36.724Z,147.40
2019-03-23T08:31:36.689Z,139.70
2019-03-23T08:32:36.699Z,127.10
2019-03-23T08:33:36.642Z,116.40
2019-03-23T08:34:36.721Z,120.50
2019-03-23T08:35:36.658Z,114.80
2019-03-23T08:36:36.626Z,107.40
2019-03-23T08:37:36.603Z,111.80
2019-03-23T08:38:36.594Z,110.90
2019-03-23T08:39:36.618Z,112.60
2019-03-23T08:40:36.584Z,110.40
2019-03-23T08:41:36.593Z,105.50
2019-03-23T08:42:36.553Z,109.20
2019-03-23T08:43:36.572Z,107.30
2019-03-23T08:44:36.530Z,111.20
2019-03-23T08:45:36.572Z,108.40
2019-03-23T08:46:36.511Z,110.60
2019-03-23T08:47:36.491Z,111.00
2019-03-23T08:48:36.478Z,105.80
2019-03-23T08:49:36.489Z,108.60
2019-03-23T08:50:36.501Z,98.90
2019-03-23T08:51:36.440Z,109.20
2019-03-23T08:52:36.437Z,110.00
2019-03-23T08:53:36.433Z,114.00
2019-03-23T08:54:36.458Z,116.30
2019-03-23T08:55:36.437Z,114.90
2019-03-23T08:56:37.459Z,118.70
2019-03-23T08:57:36.416Z,122.70
2019-03-23T08:58:36.378Z,117.60
2019-03-23T08:59:36.399Z,114.80
2019-03-23T09:00:36.360Z,113.00
2019-03-23T09:01:36.337Z,109.60
2019-03-23T09:02:36.325Z,109.10
2019-03-23T09:03:36.415Z,107.40
2019-03-23T09:04:36.342Z,99.80
2019-03-23T09:05:36.331Z,114.20
2019-03-23T09:06:36.281Z,106.70
2019-03-23T09:07:36.286Z,116.90
2019-03-23T09:08:36.288Z,121.30
2019-03-23T09:09:36.248Z,114.10
2019-03-23T09:10:36.288Z,123.80
2019-03-23T09:11:36.226Z,130.20
2019-03-23T09:12:36.223Z,122.70
2019-03-23T09:13:40.599Z,123.40
2019-03-23T09:14:36.212Z,119.70
2019-03-23T09:15:36.220Z,127.00
2019-03-23T09:16:36.173Z,119.60
2019-03-23T09:17:36.193Z,128.40
2019-03-23T09:18:36.164Z,125.10
2019-03-23T09:19:36.148Z,125.10
2019-03-23T09:20:36.127Z,133.30
2019-03-23T09:21:36.159Z,131.10
2019-03-23T09:22:36.135Z,142.50
2019-03-23T09:23:36.111Z,139.20
2019-03-23T09:24:36.086Z,131.60
2019-03-23T09:25:36.084Z,137.80
2019-03-23T09:26:36.079Z,132.10
2019-03-23T09:27:36.094Z,124.90
2019-03-23T09:28:36.039Z,124.50
2019-03-23T09:29:36.032Z,120.60
2019-03-23T09:30:36.079Z,131.80
2019-03-23T09:31:36.010Z,131.40
2019-03-23T09:32:36.010Z,121.20
2019-03-23T09:33:35.985Z,118.20
2019-03-23T09:34:35.988Z,120.40
2019-03-23T09:35:39.359Z,118.80
2019-03-23T09:36:35.979Z,114.10
2019-03-23T09:37:38.294Z,120.90
2019-03-23T09:38:35.935Z,107.40
2019-03-23T09:39:35.925Z,113.70
2019-03-23T09:40:35.922Z,99.60
2019-03-23T09:41:35.965Z,103.80
2019-03-23T09:42:35.920Z,103.60
2019-03-23T09:43:35.882Z,104.30
2019-03-23T09:44:35.917Z,102.00
2019-03-23T09:45:35.854Z,104.90
2019-03-23T09:46:35.851Z,105.20
2019-03-23T09:47:35.829Z,102.30
2019-03-23T09:48:35.895Z,114.30
2019-03-23T09:49:35.815Z,106.30
2019-03-23T09:50:35.810Z,110.80
2019-03-23T09:51:35.813Z,118.20
2019-03-23T09:52:35.825Z,114.20
2019-03-23T09:53:35.799Z,115.70
2019-03-23T09:54:35.807Z,108.00
2019-03-23T09:55:35.757Z,117.00
2019-03-23T09:56:35.725Z,113.90
2019-03-23T09:57:35.727Z,112.80
2019-03-23T09:58:35.752Z,107.20
2019-03-23T09:59:35.709Z,107.60
2019-03-23T10:00:35.714Z,116.10
2019-03-23T10:01:35.700Z,122.20
2019-03-23T10:02:35.672Z,120.40
2019-03-23T10:03:35.658Z,125.20
2019-03-23T10:04:35.677Z,120.30
2019-03-23T10:05:35.633Z,120.40
2019-03-23T10:06:35.647Z,126.20
2019-03-23T10:07:35.636Z,126.30
2019-03-23T10:08:35.598Z,121.80
2019-03-23T10:09:35.593Z,129.90
2019-03-23T10:10:35.617Z,121.20
2019-03-23T10:11:35.582Z,116.70
2019-03-23T10:12:35.559Z,125.60
2019-03-23T10:13:35.542Z,115.80
2019-03-23T10:14:35.582Z,118.90
2019-03-23T10:15:35.528Z,116.00
2019-03-23T10:16:35.522Z,116.90
2019-03-23T10:17:35.492Z,114.70
2019-03-23T10:18:35.499Z,120.20
2019-03-23T10:19:35.487Z,113.70
2019-03-23T10:20:35.500Z,110.60
2019-03-23T10:21:35.463Z,119.70
2019-03-23T10:22:35.446Z,121.30
2019-03-23T10:23:35.461Z,115.60
2019-03-23T10:24:35.414Z,113.10
2019-03-23T10:25:35.409Z,110.90
2019-03-23T10:26:35.444Z,115.70
2019-03-23T10:27:35.385Z,114.50
2019-03-23T10:28:35.393Z,107.70
2019-03-23T10:29:35.355Z,107.30
2019-03-23T10:30:35.386Z,104.00
2019-03-23T10:31:35.376Z,107.70
2019-03-23T10:32:35.356Z,102.10
2019-03-23T10:33:35.321Z,101.80
2019-03-23T10:34:35.317Z,104.20
2019-03-23T10:35:35.313Z,99.90
2019-03-23T10:36:35.316Z,87.50
2019-03-23T10:37:35.308Z,94.00
2019-03-23T10:38:35.263Z,79.80
2019-03-23T10:39:35.281Z,81.30
2019-03-23T10:40:35.247Z,87.20
2019-03-23T10:41:35.264Z,83.80
2019-03-23T10:42:35.275Z,89.50
2019-03-23T10:43:35.200Z,80.20
2019-03-23T10:44:35.194Z,81.70
2019-03-23T10:45:43.810Z,82.60
2019-03-23T10:46:37.947Z,79.70
2019-03-23T10:47:35.209Z,82.30
2019-03-23T10:48:35.176Z,88.40
2019-03-23T10:49:35.195Z,90.40
2019-03-23T10:50:35.133Z,85.50
2019-03-23T10:51:35.130Z,92.90
2019-03-23T10:52:35.135Z,92.20
2019-03-23T10:53:35.129Z,94.60
2019-03-23T10:54:35.112Z,92.90
2019-03-23T10:55:35.069Z,90.60
2019-03-23T10:56:35.062Z,96.30
2019-03-23T10:57:35.050Z,102.70
2019-03-23T10:58:35.069Z,96.20
2019-03-23T10:59:35.073Z,93.60
2019-03-23T11:00:36.545Z,97.00
2019-03-23T11:01:36.499Z,99.00
2019-03-23T11:02:34.988Z,102.60
2019-03-23T11:03:34.983Z,98.00
2019-03-23T11:04:34.986Z,97.70
2019-03-23T11:05:35.041Z,97.90
2019-03-23T11:06:34.952Z,97.40
2019-03-23T11:07:34.939Z,96.40
2019-03-23T11:08:34.918Z,100.00
2019-03-23T11:09:34.914Z,98.50
2019-03-23T11:10:41.690Z,98.30
2019-03-23T11:11:35.946Z,93.20
2019-03-23T11:12:37.063Z,98.80
2019-03-23T11:13:34.887Z,103.10
2019-03-23T11:14:34.857Z,94.30
2019-03-23T11:15:34.862Z,96.50
2019-03-23T11:16:34.886Z,93.50
2019-03-23T11:17:34.881Z,88.60
2019-03-23T11:18:34.822Z,91.20
2019-03-23T11:19:34.797Z,90.60
2019-03-23T11:20:34.824Z,86.50
2019-03-23T11:21:34.818Z,88.80
2019-03-23T11:22:34.776Z,90.70
2019-03-23T11:23:34.767Z,86.00
2019-03-23T11:24:34.741Z,89.20
2019-03-23T11:25:34.748Z,85.20
2019-03-23T11:26:34.769Z,86.50
2019-03-23T11:27:34.743Z,84.60
2019-03-23T11:28:34.721Z,85.80
2019-03-23T11:29:34.696Z,87.60
2019-03-23T11:30:34.682Z,82.00
2019-03-23T11:31:34.667Z,84.50
2019-03-23T11:32:34.698Z,84.90
2019-03-23T11:33:34.679Z,79.90
2019-03-23T11:34:34.643Z,82.40
2019-03-23T11:35:34.622Z,84.50
2019-03-23T11:36:34.657Z,82.50
2019-03-23T11:37:34.740Z,92.60
2019-03-23T11:38:34.586Z,91.90
2019-03-23T11:39:34.592Z,96.80
2019-03-23T11:40:34.613Z,93.50
2019-03-23T11:41:34.584Z,95.50
2019-03-23T11:42:34.552Z,90.10
2019-03-23T11:43:34.551Z,95.90
2019-03-23T11:44:34.525Z,96.00
2019-03-23T11:45:34.558Z,94.20
2019-03-23T11:46:34.515Z,95.90
2019-03-23T11:47:34.492Z,94.00
2019-03-23T11:48:34.494Z,92.30
2019-03-23T11:49:34.493Z,89.20
2019-03-23T11:50:34.461Z,89.10
2019-03-23T11:51:34.510Z,91.40
2019-03-23T11:52:34.441Z,94.00
2019-03-23T11:53:34.441Z,92.70
2019-03-23T11:54:34.424Z,84.30
2019-03-23T11:55:34.403Z,81.40
2019-03-23T11:56:34.402Z,80.90
2019-03-23T11:57:34.421Z,74.90
2019-03-23T11:58:34.381Z,78.70
2019-03-23T11:59:34.410Z,82.20
2019-03-23T12:00:34.359Z,78.50
2019-03-23T12:01:34.347Z,82.30
2019-03-23T12:02:34.326Z,80.20
2019-03-23T12:03:34.354Z,78.60
2019-03-23T12:04:34.298Z,71.90
2019-03-23T12:05:34.316Z,74.70
2019-03-23T12:06:34.293Z,70.00
2019-03-23T12:07:34.316Z,72.00
2019-03-23T12:08:34.278Z,70.00
2019-03-23T12:09:34.253Z,67.30
2019-03-23T12:10:34.236Z,71.50
2019-03-23T12:11:34.299Z,68.30
2019-03-23T12:12:34.225Z,68.40
2019-03-23T12:13:34.215Z,73.30
2019-03-23T12:14:34.185Z,69.60
2019-03-23T12:15:34.195Z,68.10
2019-03-23T12:16:34.165Z,68.50
2019-03-23T12:17:34.204Z,67.50
2019-03-23T12:18:34.148Z,64.00
2019-03-23T12:19:34.135Z,63.40
2019-03-23T12:20:34.159Z,66.90
2019-03-23T12:21:34.148Z,67.40
2019-03-23T12:22:34.125Z,69.30
2019-03-23T12:23:34.134Z,68.50
2019-03-23T12:24:34.081Z,69.40
2019-03-23T12:25:34.084Z,67.30
2019-03-23T12:26:34.091Z,70.10
2019-03-23T12:27:34.131Z,72.10
2019-03-23T12:28:34.032Z,67.30
2019-03-23T12:29:34.051Z,71.10
2019-03-23T12:30:34.019Z,71.20
2019-03-23T12:31:34.006Z,71.00
2019-03-23T12:32:34.041Z,72.30
2019-03-23T12:33:33.979Z,71.50
2019-03-23T12:34:33.985Z,73.00
2019-03-23T12:35:33.999Z,74.00
2019-03-23T12:36:33.948Z,71.80
2019-03-23T12:37:33.967Z,74.20
2019-03-23T12:38:33.982Z,75.00
2019-03-23T12:39:33.928Z,74.70
2019-03-23T12:40:33.894Z,72.60
2019-03-23T12:41:33.896Z,67.10
2019-03-23T12:42:33.885Z,72.10
2019-03-23T12:43:33.874Z,73.20
2019-03-23T12:44:33.898Z,75.80